< Typhoon 200023 2001 Season Typhoon 200102 >
Typhoon 200101 (CIMARON)
General InformationTrack Information on Google MapsDetailed Wind InformationList of All Images || Disaster Info.ResourceGoogle EarthGE AnimationAtom FeedGeoJSON
Detalied Best Track (Time Zone = UTC)
Year Month Day Hour Lat. Long. Pressure (hPa) Wind (kt) Class Image Chart
2001 5 9 12 11.8 120.0 1004 0 2 Image Chart
2001 5 9 18 12.3 119.6 1004 0 2 Image Chart
2001 5 10 00 13.1 119.5 1004 0 2 Image Chart
2001 5 10 06 14.1 119.3 1004 0 2 Image Chart
2001 5 10 12 15.3 119.1 1002 0 2 Image Chart
2001 5 10 18 16.2 119.1 1002 0 2 Image Chart
2001 5 11 00 17.1 119.1 1000 35 3 Image Chart
2001 5 11 06 17.6 119.1 998 35 3 Image Chart
2001 5 11 12 18.0 119.2 998 35 3 Image Chart
2001 5 11 18 18.4 119.4 996 40 3 Image Chart
2001 5 12 00 18.9 119.9 994 40 3 Image Chart
2001 5 12 06 19.5 120.5 994 40 3 Image Chart
2001 5 12 12 20.0 121.0 994 40 3 Image Chart
2001 5 12 15 20.2 121.1 992 45 3 Image Chart
2001 5 12 18 20.4 121.3 990 45 3 Image Chart
2001 5 12 21 20.7 121.5 990 45 3 Image Chart
2001 5 13 00 20.9 121.7 985 50 4 Image Chart
2001 5 13 03 21.6 122.2 985 50 4 Image Chart
2001 5 13 06 22.1 122.6 990 45 3 Image Chart
2001 5 13 09 22.6 123.2 990 45 3 Image Chart
2001 5 13 12 23.1 123.9 990 45 3 Image Chart
2001 5 13 15 23.6 124.5 990 45 3 Image Chart
2001 5 13 18 24.4 125.2 990 45 3 Image Chart
2001 5 13 21 25.0 125.8 990 45 3 Image Chart
2001 5 14 00 25.6 126.5 990 45 3 Image Chart
2001 5 14 03 26.2 127.2 992 45 3 Image Chart
2001 5 14 06 26.7 128.0 996 40 3 Image Chart
2001 5 14 09 27.2 128.4 998 35 3 Image Chart
2001 5 14 12 27.2 129.1 1000 0 6 Image Chart
2001 5 14 18 27.4 130.7 1000 0 6 Image Chart
2001 5 15 00 27.4 131.9 1002 0 6 Image Chart
2001 5 15 06 27.7 133.5 1002 0 6 Image Chart
2001 5 15 12 27.7 134.6 1004 0 6 Image Chart
Japan Meteorological Agency Best Track Data | Correction Date : 2002-01-24
< Typhoon 200023 2001 Season Typhoon 200102 >

Help